sensor_id;sensor_type;location;lat;lon;timestamp;P1;durP1;ratioP1;P2;durP2;ratioP2
26864;SDS011;40618;51.166;10.322;2022-10-31T00:00:20;6.75;;;1.80;;
26864;SDS011;40618;51.166;10.322;2022-10-31T00:02:46;5.80;;;1.60;;
26864;SDS011;40618;51.166;10.322;2022-10-31T00:05:12;4.28;;;2.15;;
26864;SDS011;40618;51.166;10.322;2022-10-31T00:07:37;2.05;;;1.70;;
26864;SDS011;40618;51.166;10.322;2022-10-31T00:10:03;4.25;;;1.80;;
26864;SDS011;40618;51.166;10.322;2022-10-31T00:12:30;4.60;;;1.90;;
26864;SDS011;40618;51.166;10.322;2022-10-31T00:14:55;3.83;;;2.10;;
26864;SDS011;40618;51.166;10.322;2022-10-31T00:17:21;7.57;;;1.98;;
26864;SDS011;40618;51.166;10.322;2022-10-31T00:19:46;6.10;;;1.88;;
26864;SDS011;40618;51.166;10.322;2022-10-31T00:22:12;7.95;;;1.73;;
26864;SDS011;40618;51.166;10.322;2022-10-31T00:24:37;5.72;;;1.75;;
26864;SDS011;40618;51.166;10.322;2022-10-31T00:27:03;5.90;;;2.00;;
26864;SDS011;40618;51.166;10.322;2022-10-31T00:29:28;5.68;;;2.00;;
26864;SDS011;40618;51.166;10.322;2022-10-31T00:31:54;4.00;;;2.10;;
26864;SDS011;40618;51.166;10.322;2022-10-31T00:34:19;6.75;;;1.92;;
26864;SDS011;40618;51.166;10.322;2022-10-31T00:36:45;5.20;;;2.10;;
26864;SDS011;40618;51.166;10.322;2022-10-31T00:39:10;2.65;;;1.90;;
26864;SDS011;40618;51.166;10.322;2022-10-31T00:41:36;5.60;;;2.13;;
26864;SDS011;40618;51.166;10.322;2022-10-31T00:44:01;8.98;;;2.60;;
26864;SDS011;40618;51.166;10.322;2022-10-31T00:46:27;2.75;;;1.55;;
26864;SDS011;40618;51.166;10.322;2022-10-31T00:48:53;4.63;;;2.22;;
26864;SDS011;40618;51.166;10.322;2022-10-31T00:51:18;6.70;;;2.50;;
26864;SDS011;40618;51.166;10.322;2022-10-31T00:53:44;4.05;;;1.90;;
26864;SDS011;40618;51.166;10.322;2022-10-31T00:56:10;2.78;;;1.60;;
26864;SDS011;40618;51.166;10.322;2022-10-31T00:58:35;3.45;;;1.88;;
26864;SDS011;40618;51.166;10.322;2022-10-31T01:01:01;4.38;;;2.38;;
26864;SDS011;40618;51.166;10.322;2022-10-31T01:03:29;4.70;;;1.92;;
26864;SDS011;40618;51.166;10.322;2022-10-31T01:06:05;4.80;;;2.33;;
26864;SDS011;40618;51.166;10.322;2022-10-31T01:08:34;3.25;;;1.60;;
26864;SDS011;40618;51.166;10.322;2022-10-31T01:13:34;9.70;;;1.88;;
26864;SDS011;40618;51.166;10.322;2022-10-31T01:16:01;3.20;;;1.50;;
26864;SDS011;40618;51.166;10.322;2022-10-31T01:18:29;5.65;;;1.92;;
26864;SDS011;40618;51.166;10.322;2022-10-31T01:21:02;5.88;;;2.40;;
26864;SDS011;40618;51.166;10.322;2022-10-31T01:23:32;7.70;;;2.30;;
26864;SDS011;40618;51.166;10.322;2022-10-31T01:26:18;5.70;;;1.80;;
26864;SDS011;40618;51.166;10.322;2022-10-31T01:28:48;5.90;;;1.90;;
26864;SDS011;40618;51.166;10.322;2022-10-31T01:31:19;5.78;;;2.10;;
26864;SDS011;40618;51.166;10.322;2022-10-31T01:33:47;4.18;;;1.90;;
26864;SDS011;40618;51.166;10.322;2022-10-31T01:38:49;4.65;;;1.75;;
26864;SDS011;40618;51.166;10.322;2022-10-31T01:41:19;4.75;;;1.92;;
26864;SDS011;40618;51.166;10.322;2022-10-31T01:46:23;5.20;;;2.05;;
26864;SDS011;40618;51.166;10.322;2022-10-31T01:48:55;2.85;;;1.80;;
26864;SDS011;40618;51.166;10.322;2022-10-31T01:51:26;3.65;;;1.52;;
26864;SDS011;40618;51.166;10.322;2022-10-31T01:54:00;3.60;;;1.85;;
26864;SDS011;40618;51.166;10.322;2022-10-31T01:56:32;5.00;;;1.85;;
26864;SDS011;40618;51.166;10.322;2022-10-31T01:59:04;3.17;;;1.63;;
26864;SDS011;40618;51.166;10.322;2022-10-31T02:01:35;5.78;;;2.20;;
26864;SDS011;40618;51.166;10.322;2022-10-31T02:04:01;5.90;;;2.08;;
26864;SDS011;40618;51.166;10.322;2022-10-31T02:06:46;4.93;;;1.70;;
26864;SDS011;40618;51.166;10.322;2022-10-31T02:09:18;4.32;;;2.30;;
26864;SDS011;40618;51.166;10.322;2022-10-31T02:11:48;4.28;;;1.77;;
26864;SDS011;40618;51.166;10.322;2022-10-31T02:14:18;3.80;;;1.95;;
26864;SDS011;40618;51.166;10.322;2022-10-31T02:16:47;4.50;;;2.20;;
26864;SDS011;40618;51.166;10.322;2022-10-31T02:19:13;3.28;;;1.58;;
26864;SDS011;40618;51.166;10.322;2022-10-31T02:21:54;3.78;;;1.92;;
26864;SDS011;40618;51.166;10.322;2022-10-31T02:27:16;3.22;;;2.20;;
26864;SDS011;40618;51.166;10.322;2022-10-31T02:43:58;6.60;;;1.98;;
26864;SDS011;40618;51.166;10.322;2022-10-31T02:47:11;5.10;;;1.85;;
26864;SDS011;40618;51.166;10.322;2022-10-31T02:52:38;3.97;;;1.73;;
26864;SDS011;40618;51.166;10.322;2022-10-31T02:57:48;3.63;;;1.90;;
26864;SDS011;40618;51.166;10.322;2022-10-31T03:00:16;3.78;;;2.03;;
26864;SDS011;40618;51.166;10.322;2022-10-31T03:08:35;4.07;;;2.00;;
26864;SDS011;40618;51.166;10.322;2022-10-31T03:11:20;5.28;;;2.33;;
26864;SDS011;40618;51.166;10.322;2022-10-31T03:14:05;3.33;;;1.73;;
26864;SDS011;40618;51.166;10.322;2022-10-31T03:16:55;4.88;;;1.73;;
26864;SDS011;40618;51.166;10.322;2022-10-31T03:19:28;4.05;;;1.73;;
26864;SDS011;40618;51.166;10.322;2022-10-31T03:24:42;9.27;;;1.92;;
26864;SDS011;40618;51.166;10.322;2022-10-31T03:27:10;6.35;;;2.28;;
26864;SDS011;40618;51.166;10.322;2022-10-31T03:29:40;5.38;;;2.20;;
26864;SDS011;40618;51.166;10.322;2022-10-31T03:32:16;6.50;;;1.98;;
26864;SDS011;40618;51.166;10.322;2022-10-31T03:34:49;4.80;;;2.33;;
26864;SDS011;40618;51.166;10.322;2022-10-31T03:37:18;2.78;;;1.88;;
26864;SDS011;40618;51.166;10.322;2022-10-31T03:39:46;4.70;;;2.00;;
26864;SDS011;40618;51.166;10.322;2022-10-31T03:42:24;3.78;;;1.80;;
26864;SDS011;40618;51.166;10.322;2022-10-31T03:45:00;7.70;;;2.13;;
26864;SDS011;40618;51.166;10.322;2022-10-31T03:47:46;3.95;;;2.03;;
26864;SDS011;40618;51.166;10.322;2022-10-31T03:50:13;6.93;;;2.00;;
26864;SDS011;40618;51.166;10.322;2022-10-31T03:55:28;2.38;;;1.80;;
26864;SDS011;40618;51.166;10.322;2022-10-31T03:58:06;3.13;;;1.92;;
26864;SDS011;40618;51.166;10.322;2022-10-31T04:00:45;8.85;;;1.85;;
26864;SDS011;40618;51.166;10.322;2022-10-31T04:03:21;3.00;;;1.75;;
26864;SDS011;40618;51.166;10.322;2022-10-31T04:05:52;5.32;;;2.50;;
26864;SDS011;40618;51.166;10.322;2022-10-31T04:08:23;3.23;;;1.70;;
26864;SDS011;40618;51.166;10.322;2022-10-31T04:10:55;4.03;;;2.00;;
26864;SDS011;40618;51.166;10.322;2022-10-31T04:13:25;4.63;;;2.33;;
26864;SDS011;40618;51.166;10.322;2022-10-31T04:15:54;4.88;;;2.30;;
26864;SDS011;40618;51.166;10.322;2022-10-31T04:18:24;8.30;;;2.30;;
26864;SDS011;40618;51.166;10.322;2022-10-31T04:20:59;7.38;;;2.35;;
26864;SDS011;40618;51.166;10.322;2022-10-31T04:23:30;5.05;;;2.47;;
26864;SDS011;40618;51.166;10.322;2022-10-31T04:25:57;3.72;;;2.15;;
26864;SDS011;40618;51.166;10.322;2022-10-31T04:28:23;4.88;;;2.00;;
26864;SDS011;40618;51.166;10.322;2022-10-31T04:30:49;6.35;;;2.15;;
26864;SDS011;40618;51.166;10.322;2022-10-31T04:33:14;8.40;;;2.20;;
26864;SDS011;40618;51.166;10.322;2022-10-31T04:35:40;5.93;;;2.17;;
26864;SDS011;40618;51.166;10.322;2022-10-31T04:38:06;4.43;;;2.05;;
26864;SDS011;40618;51.166;10.322;2022-10-31T04:40:31;6.85;;;2.40;;
26864;SDS011;40618;51.166;10.322;2022-10-31T04:42:57;4.63;;;2.03;;
26864;SDS011;40618;51.166;10.322;2022-10-31T04:45:22;5.55;;;2.50;;
26864;SDS011;40618;51.166;10.322;2022-10-31T04:47:48;7.78;;;2.03;;
26864;SDS011;40618;51.166;10.322;2022-10-31T04:50:13;6.70;;;2.33;;
26864;SDS011;40618;51.166;10.322;2022-10-31T04:52:40;4.43;;;2.00;;
26864;SDS011;40618;51.166;10.322;2022-10-31T04:55:08;4.15;;;2.20;;
26864;SDS011;40618;51.166;10.322;2022-10-31T04:57:41;4.78;;;2.25;;
26864;SDS011;40618;51.166;10.322;2022-10-31T05:00:12;4.05;;;2.10;;
26864;SDS011;40618;51.166;10.322;2022-10-31T05:02:42;3.88;;;2.15;;
26864;SDS011;40618;51.166;10.322;2022-10-31T05:05:20;3.55;;;2.17;;
26864;SDS011;40618;51.166;10.322;2022-10-31T05:07:50;6.20;;;2.17;;
26864;SDS011;40618;51.166;10.322;2022-10-31T05:10:19;5.20;;;1.90;;
26864;SDS011;40618;51.166;10.322;2022-10-31T05:12:51;7.18;;;2.17;;
26864;SDS011;40618;51.166;10.322;2022-10-31T05:15:20;7.05;;;2.20;;
26864;SDS011;40618;51.166;10.322;2022-10-31T05:17:48;7.78;;;2.40;;
26864;SDS011;40618;51.166;10.322;2022-10-31T05:20:15;4.25;;;2.75;;
26864;SDS011;40618;51.166;10.322;2022-10-31T05:22:43;8.85;;;4.00;;
26864;SDS011;40618;51.166;10.322;2022-10-31T05:25:10;9.40;;;4.50;;
26864;SDS011;40618;51.166;10.322;2022-10-31T05:27:43;14.02;;;6.20;;
26864;SDS011;40618;51.166;10.322;2022-10-31T05:30:12;17.50;;;6.20;;
26864;SDS011;40618;51.166;10.322;2022-10-31T05:32:44;11.85;;;5.70;;
26864;SDS011;40618;51.166;10.322;2022-10-31T05:35:13;9.52;;;4.57;;
26864;SDS011;40618;51.166;10.322;2022-10-31T05:37:41;7.68;;;4.05;;
26864;SDS011;40618;51.166;10.322;2022-10-31T05:40:08;10.45;;;2.95;;
26864;SDS011;40618;51.166;10.322;2022-10-31T05:42:40;9.80;;;3.22;;
26864;SDS011;40618;51.166;10.322;2022-10-31T05:45:07;9.80;;;4.43;;
26864;SDS011;40618;51.166;10.322;2022-10-31T05:47:35;9.65;;;4.85;;
26864;SDS011;40618;51.166;10.322;2022-10-31T05:50:01;10.48;;;4.03;;
26864;SDS011;40618;51.166;10.322;2022-10-31T05:52:28;4.82;;;2.78;;
26864;SDS011;40618;51.166;10.322;2022-10-31T05:54:53;7.30;;;2.60;;
26864;SDS011;40618;51.166;10.322;2022-10-31T05:57:19;7.53;;;2.72;;
26864;SDS011;40618;51.166;10.322;2022-10-31T05:59:45;5.38;;;2.13;;
26864;SDS011;40618;51.166;10.322;2022-10-31T06:02:10;4.75;;;2.10;;
26864;SDS011;40618;51.166;10.322;2022-10-31T06:04:36;4.10;;;1.77;;
26864;SDS011;40618;51.166;10.322;2022-10-31T06:07:01;6.38;;;2.30;;
26864;SDS011;40618;51.166;10.322;2022-10-31T06:09:27;4.05;;;2.55;;
26864;SDS011;40618;51.166;10.322;2022-10-31T06:11:52;6.97;;;2.83;;
26864;SDS011;40618;51.166;10.322;2022-10-31T06:14:18;6.47;;;3.25;;
26864;SDS011;40618;51.166;10.322;2022-10-31T06:16:43;7.20;;;3.35;;
26864;SDS011;40618;51.166;10.322;2022-10-31T06:19:09;2.95;;;2.47;;
26864;SDS011;40618;51.166;10.322;2022-10-31T06:21:34;6.45;;;3.95;;
26864;SDS011;40618;51.166;10.322;2022-10-31T06:24:00;7.85;;;5.38;;
26864;SDS011;40618;51.166;10.322;2022-10-31T06:26:25;8.18;;;4.40;;
26864;SDS011;40618;51.166;10.322;2022-10-31T06:28:51;5.78;;;3.17;;
26864;SDS011;40618;51.166;10.322;2022-10-31T06:31:16;8.30;;;3.03;;
26864;SDS011;40618;51.166;10.322;2022-10-31T06:33:42;7.30;;;3.78;;
26864;SDS011;40618;51.166;10.322;2022-10-31T06:36:08;9.07;;;4.25;;
26864;SDS011;40618;51.166;10.322;2022-10-31T06:38:35;9.07;;;4.93;;
26864;SDS011;40618;51.166;10.322;2022-10-31T06:41:04;12.52;;;5.07;;
26864;SDS011;40618;51.166;10.322;2022-10-31T06:43:31;9.18;;;5.07;;
26864;SDS011;40618;51.166;10.322;2022-10-31T06:45:57;10.00;;;4.65;;
26864;SDS011;40618;51.166;10.322;2022-10-31T06:50:53;7.00;;;4.45;;
26864;SDS011;40618;51.166;10.322;2022-10-31T06:53:18;10.52;;;5.20;;
26864;SDS011;40618;51.166;10.322;2022-10-31T06:55:43;7.32;;;4.50;;
26864;SDS011;40618;51.166;10.322;2022-10-31T06:58:10;8.88;;;4.72;;
26864;SDS011;40618;51.166;10.322;2022-10-31T07:00:36;10.02;;;4.78;;
26864;SDS011;40618;51.166;10.322;2022-10-31T07:03:03;6.40;;;4.28;;
26864;SDS011;40618;51.166;10.322;2022-10-31T07:05:32;12.80;;;3.92;;
26864;SDS011;40618;51.166;10.322;2022-10-31T07:07:58;12.68;;;5.35;;
26864;SDS011;40618;51.166;10.322;2022-10-31T07:10:28;9.43;;;5.63;;
26864;SDS011;40618;51.166;10.322;2022-10-31T07:12:56;11.05;;;5.25;;
26864;SDS011;40618;51.166;10.322;2022-10-31T07:15:24;8.20;;;5.10;;
26864;SDS011;40618;51.166;10.322;2022-10-31T07:17:52;11.63;;;5.25;;
26864;SDS011;40618;51.166;10.322;2022-10-31T07:20:19;7.90;;;5.28;;
26864;SDS011;40618;51.166;10.322;2022-10-31T07:22:44;10.07;;;6.32;;
26864;SDS011;40618;51.166;10.322;2022-10-31T07:25:10;9.68;;;5.90;;
26864;SDS011;40618;51.166;10.322;2022-10-31T07:27:40;7.43;;;4.18;;
26864;SDS011;40618;51.166;10.322;2022-10-31T07:30:08;10.80;;;5.47;;
26864;SDS011;40618;51.166;10.322;2022-10-31T07:32:40;10.93;;;4.50;;
26864;SDS011;40618;51.166;10.322;2022-10-31T07:35:08;6.68;;;4.63;;
26864;SDS011;40618;51.166;10.322;2022-10-31T07:37:36;12.43;;;5.43;;
26864;SDS011;40618;51.166;10.322;2022-10-31T07:40:03;12.75;;;5.75;;
26864;SDS011;40618;51.166;10.322;2022-10-31T07:42:37;16.17;;;6.38;;
26864;SDS011;40618;51.166;10.322;2022-10-31T07:45:12;16.05;;;6.43;;
26864;SDS011;40618;51.166;10.322;2022-10-31T07:47:41;11.53;;;5.83;;
26864;SDS011;40618;51.166;10.322;2022-10-31T07:50:10;10.40;;;5.70;;
26864;SDS011;40618;51.166;10.322;2022-10-31T07:52:39;16.30;;;6.68;;
26864;SDS011;40618;51.166;10.322;2022-10-31T07:55:05;10.38;;;6.50;;
26864;SDS011;40618;51.166;10.322;2022-10-31T07:57:31;9.57;;;5.78;;
26864;SDS011;40618;51.166;10.322;2022-10-31T07:59:58;12.18;;;6.97;;
26864;SDS011;40618;51.166;10.322;2022-10-31T08:02:25;11.05;;;7.00;;
26864;SDS011;40618;51.166;10.322;2022-10-31T08:04:51;13.80;;;7.93;;
26864;SDS011;40618;51.166;10.322;2022-10-31T08:07:18;14.95;;;7.93;;
26864;SDS011;40618;51.166;10.322;2022-10-31T08:09:43;15.75;;;8.50;;
26864;SDS011;40618;51.166;10.322;2022-10-31T08:12:09;13.98;;;7.60;;
26864;SDS011;40618;51.166;10.322;2022-10-31T08:14:35;15.85;;;8.07;;
26864;SDS011;40618;51.166;10.322;2022-10-31T08:17:01;15.63;;;8.30;;
26864;SDS011;40618;51.166;10.322;2022-10-31T08:19:26;15.38;;;8.43;;
26864;SDS011;40618;51.166;10.322;2022-10-31T08:21:52;18.10;;;10.57;;
26864;SDS011;40618;51.166;10.322;2022-10-31T08:24:20;15.73;;;8.60;;
26864;SDS011;40618;51.166;10.322;2022-10-31T08:26:46;17.25;;;9.00;;
26864;SDS011;40618;51.166;10.322;2022-10-31T08:29:12;15.27;;;9.45;;
26864;SDS011;40618;51.166;10.322;2022-10-31T08:31:38;22.55;;;9.15;;
26864;SDS011;40618;51.166;10.322;2022-10-31T08:34:03;17.00;;;9.15;;
26864;SDS011;40618;51.166;10.322;2022-10-31T08:36:29;23.98;;;11.93;;
26864;SDS011;40618;51.166;10.322;2022-10-31T08:38:55;32.88;;;15.55;;
26864;SDS011;40618;51.166;10.322;2022-10-31T08:41:21;27.73;;;12.77;;
26864;SDS011;40618;51.166;10.322;2022-10-31T08:43:47;21.67;;;10.35;;
26864;SDS011;40618;51.166;10.322;2022-10-31T08:46:12;27.33;;;12.90;;
26864;SDS011;40618;51.166;10.322;2022-10-31T08:48:38;23.55;;;11.35;;
26864;SDS011;40618;51.166;10.322;2022-10-31T08:51:04;20.05;;;11.45;;
26864;SDS011;40618;51.166;10.322;2022-10-31T08:53:30;17.10;;;9.18;;
26864;SDS011;40618;51.166;10.322;2022-10-31T08:55:56;17.08;;;8.20;;
26864;SDS011;40618;51.166;10.322;2022-10-31T08:58:22;16.17;;;7.63;;
26864;SDS011;40618;51.166;10.322;2022-10-31T09:00:50;16.20;;;8.13;;
26864;SDS011;40618;51.166;10.322;2022-10-31T09:05:46;19.77;;;8.57;;
26864;SDS011;40618;51.166;10.322;2022-10-31T09:08:13;17.45;;;8.70;;
26864;SDS011;40618;51.166;10.322;2022-10-31T09:10:39;20.13;;;9.88;;
26864;SDS011;40618;51.166;10.322;2022-10-31T09:13:06;20.05;;;9.48;;
26864;SDS011;40618;51.166;10.322;2022-10-31T09:15:40;16.83;;;9.88;;
26864;SDS011;40618;51.166;10.322;2022-10-31T09:18:09;12.48;;;8.57;;
26864;SDS011;40618;51.166;10.322;2022-10-31T09:20:36;12.52;;;7.03;;
26864;SDS011;40618;51.166;10.322;2022-10-31T09:23:05;15.65;;;8.57;;
26864;SDS011;40618;51.166;10.322;2022-10-31T09:25:36;18.55;;;10.13;;
26864;SDS011;40618;51.166;10.322;2022-10-31T09:28:03;16.17;;;10.52;;
26864;SDS011;40618;51.166;10.322;2022-10-31T09:30:32;21.95;;;11.88;;
26864;SDS011;40618;51.166;10.322;2022-10-31T09:33:08;17.40;;;9.80;;
26864;SDS011;40618;51.166;10.322;2022-10-31T09:35:37;14.20;;;8.95;;
26864;SDS011;40618;51.166;10.322;2022-10-31T09:38:08;15.40;;;8.32;;
26864;SDS011;40618;51.166;10.322;2022-10-31T09:40:46;13.23;;;8.68;;
26864;SDS011;40618;51.166;10.322;2022-10-31T09:52:29;17.95;;;9.48;;
26864;SDS011;40618;51.166;10.322;2022-10-31T09:54:43;17.80;;;9.93;;
26864;SDS011;40618;51.166;10.322;2022-10-31T09:57:33;15.82;;;9.70;;
26864;SDS011;40618;51.166;10.322;2022-10-31T10:00:05;17.20;;;10.32;;
26864;SDS011;40618;51.166;10.322;2022-10-31T10:02:57;18.33;;;10.88;;
26864;SDS011;40618;51.166;10.322;2022-10-31T10:08:23;19.42;;;10.50;;
26864;SDS011;40618;51.166;10.322;2022-10-31T10:10:55;20.08;;;10.98;;
26864;SDS011;40618;51.166;10.322;2022-10-31T10:13:59;18.42;;;10.88;;
26864;SDS011;40618;51.166;10.322;2022-10-31T10:22:36;25.30;;;12.38;;
26864;SDS011;40618;51.166;10.322;2022-10-31T10:25:24;20.52;;;11.38;;
26864;SDS011;40618;51.166;10.322;2022-10-31T10:30:57;23.20;;;11.10;;
26864;SDS011;40618;51.166;10.322;2022-10-31T10:34:33;22.88;;;11.20;;
26864;SDS011;40618;51.166;10.322;2022-10-31T10:39:16;21.27;;;9.90;;
26864;SDS011;40618;51.166;10.322;2022-10-31T10:41:48;25.50;;;12.25;;
26864;SDS011;40618;51.166;10.322;2022-10-31T10:44:36;19.65;;;9.88;;
26864;SDS011;40618;51.166;10.322;2022-10-31T10:47:26;31.65;;;11.98;;
26864;SDS011;40618;51.166;10.322;2022-10-31T10:52:50;23.10;;;12.27;;
26864;SDS011;40618;51.166;10.322;2022-10-31T10:58:07;23.92;;;12.07;;
26864;SDS011;40618;51.166;10.322;2022-10-31T11:00:41;24.88;;;11.73;;
26864;SDS011;40618;51.166;10.322;2022-10-31T11:03:11;19.77;;;10.43;;
26864;SDS011;40618;51.166;10.322;2022-10-31T11:05:40;21.63;;;11.55;;
26864;SDS011;40618;51.166;10.322;2022-10-31T11:13:42;20.42;;;10.15;;
26864;SDS011;40618;51.166;10.322;2022-10-31T11:16:14;22.83;;;11.38;;
26864;SDS011;40618;51.166;10.322;2022-10-31T11:18:52;22.00;;;11.15;;
26864;SDS011;40618;51.166;10.322;2022-10-31T11:21:29;19.40;;;10.82;;
26864;SDS011;40618;51.166;10.322;2022-10-31T11:24:02;22.33;;;10.57;;
26864;SDS011;40618;51.166;10.322;2022-10-31T11:26:40;17.52;;;9.50;;
26864;SDS011;40618;51.166;10.322;2022-10-31T11:29:13;20.23;;;9.57;;
26864;SDS011;40618;51.166;10.322;2022-10-31T11:31:53;21.38;;;9.05;;
26864;SDS011;40618;51.166;10.322;2022-10-31T11:37:12;16.20;;;7.85;;
26864;SDS011;40618;51.166;10.322;2022-10-31T11:39:45;18.52;;;8.40;;
26864;SDS011;40618;51.166;10.322;2022-10-31T11:42:19;17.58;;;8.07;;
26864;SDS011;40618;51.166;10.322;2022-10-31T11:44:48;13.23;;;8.43;;
26864;SDS011;40618;51.166;10.322;2022-10-31T11:47:20;14.30;;;8.60;;
26864;SDS011;40618;51.166;10.322;2022-10-31T11:49:53;14.85;;;8.15;;
26864;SDS011;40618;51.166;10.322;2022-10-31T11:52:25;16.08;;;7.43;;
26864;SDS011;40618;51.166;10.322;2022-10-31T11:54:55;15.48;;;7.97;;
26864;SDS011;40618;51.166;10.322;2022-10-31T11:59:59;14.73;;;7.68;;
26864;SDS011;40618;51.166;10.322;2022-10-31T12:02:28;13.65;;;8.35;;
26864;SDS011;40618;51.166;10.322;2022-10-31T12:05:08;12.60;;;7.68;;
26864;SDS011;40618;51.166;10.322;2022-10-31T12:10:11;20.38;;;7.50;;
26864;SDS011;40618;51.166;10.322;2022-10-31T12:15:31;15.82;;;7.68;;
26864;SDS011;40618;51.166;10.322;2022-10-31T12:18:05;12.73;;;7.40;;
26864;SDS011;40618;51.166;10.322;2022-10-31T12:23:47;12.93;;;7.13;;
26864;SDS011;40618;51.166;10.322;2022-10-31T12:29:47;11.93;;;6.18;;
26864;SDS011;40618;51.166;10.322;2022-10-31T12:32:47;15.15;;;7.45;;
26864;SDS011;40618;51.166;10.322;2022-10-31T12:38:20;13.23;;;6.40;;
26864;SDS011;40618;51.166;10.322;2022-10-31T12:47:18;11.60;;;6.22;;
26864;SDS011;40618;51.166;10.322;2022-10-31T13:04:58;13.90;;;6.72;;
26864;SDS011;40618;51.166;10.322;2022-10-31T13:07:54;13.88;;;6.55;;
26864;SDS011;40618;51.166;10.322;2022-10-31T13:10:30;10.75;;;6.18;;
26864;SDS011;40618;51.166;10.322;2022-10-31T13:13:05;17.30;;;7.47;;
26864;SDS011;40618;51.166;10.322;2022-10-31T13:15:48;16.35;;;7.00;;
26864;SDS011;40618;51.166;10.322;2022-10-31T13:18:30;10.87;;;7.20;;
26864;SDS011;40618;51.166;10.322;2022-10-31T13:21:11;12.55;;;6.63;;
26864;SDS011;40618;51.166;10.322;2022-10-31T13:23:56;11.30;;;6.88;;
26864;SDS011;40618;51.166;10.322;2022-10-31T13:26:36;12.02;;;6.90;;
26864;SDS011;40618;51.166;10.322;2022-10-31T13:29:27;14.13;;;6.65;;
26864;SDS011;40618;51.166;10.322;2022-10-31T13:32:20;10.88;;;6.85;;
26864;SDS011;40618;51.166;10.322;2022-10-31T13:34:47;12.30;;;6.78;;
26864;SDS011;40618;51.166;10.322;2022-10-31T13:37:30;14.57;;;7.15;;
26864;SDS011;40618;51.166;10.322;2022-10-31T13:45:51;12.75;;;6.40;;
26864;SDS011;40618;51.166;10.322;2022-10-31T13:50:56;10.60;;;6.18;;
26864;SDS011;40618;51.166;10.322;2022-10-31T13:58:41;9.98;;;6.05;;
26864;SDS011;40618;51.166;10.322;2022-10-31T14:01:55;11.18;;;5.93;;
26864;SDS011;40618;51.166;10.322;2022-10-31T14:07:06;11.15;;;5.35;;
26864;SDS011;40618;51.166;10.322;2022-10-31T14:09:36;11.60;;;6.40;;
26864;SDS011;40618;51.166;10.322;2022-10-31T14:12:07;9.52;;;6.05;;
26864;SDS011;40618;51.166;10.322;2022-10-31T14:14:42;8.82;;;5.20;;
26864;SDS011;40618;51.166;10.322;2022-10-31T14:17:20;16.33;;;6.00;;
26864;SDS011;40618;51.166;10.322;2022-10-31T14:22:48;9.77;;;5.30;;
26864;SDS011;40618;51.166;10.322;2022-10-31T14:27:52;12.80;;;6.93;;
26864;SDS011;40618;51.166;10.322;2022-10-31T14:30:19;11.93;;;7.38;;
26864;SDS011;40618;51.166;10.322;2022-10-31T14:32:50;13.93;;;6.47;;
26864;SDS011;40618;51.166;10.322;2022-10-31T14:35:46;9.55;;;5.20;;
26864;SDS011;40618;51.166;10.322;2022-10-31T14:38:26;12.48;;;5.43;;
26864;SDS011;40618;51.166;10.322;2022-10-31T14:50:52;9.57;;;5.03;;
26864;SDS011;40618;51.166;10.322;2022-10-31T14:53:32;10.75;;;6.25;;
26864;SDS011;40618;51.166;10.322;2022-10-31T14:56:08;10.52;;;5.75;;
26864;SDS011;40618;51.166;10.322;2022-10-31T14:58:39;13.10;;;6.47;;
26864;SDS011;40618;51.166;10.322;2022-10-31T15:01:24;12.32;;;6.03;;
26864;SDS011;40618;51.166;10.322;2022-10-31T15:03:57;10.15;;;6.13;;
26864;SDS011;40618;51.166;10.322;2022-10-31T15:06:38;7.10;;;5.22;;
26864;SDS011;40618;51.166;10.322;2022-10-31T15:12:27;7.50;;;4.82;;
26864;SDS011;40618;51.166;10.322;2022-10-31T15:15:11;9.65;;;5.45;;
26864;SDS011;40618;51.166;10.322;2022-10-31T15:17:59;7.63;;;4.88;;
26864;SDS011;40618;51.166;10.322;2022-10-31T15:20:30;9.48;;;4.88;;
26864;SDS011;40618;51.166;10.322;2022-10-31T15:23:09;15.10;;;5.47;;
26864;SDS011;40618;51.166;10.322;2022-10-31T15:25:41;13.80;;;7.05;;
26864;SDS011;40618;51.166;10.322;2022-10-31T15:28:14;13.63;;;6.32;;
26864;SDS011;40618;51.166;10.322;2022-10-31T15:30:50;11.73;;;6.28;;
26864;SDS011;40618;51.166;10.322;2022-10-31T15:33:20;25.75;;;6.57;;
26864;SDS011;40618;51.166;10.322;2022-10-31T15:36:05;11.07;;;5.65;;
26864;SDS011;40618;51.166;10.322;2022-10-31T15:38:30;10.52;;;6.45;;
26864;SDS011;40618;51.166;10.322;2022-10-31T15:40:59;17.30;;;5.78;;
26864;SDS011;40618;51.166;10.322;2022-10-31T15:43:30;16.80;;;8.10;;
26864;SDS011;40618;51.166;10.322;2022-10-31T15:46:01;32.20;;;12.20;;
26864;SDS011;40618;51.166;10.322;2022-10-31T15:48:31;38.83;;;13.70;;
26864;SDS011;40618;51.166;10.322;2022-10-31T15:50:57;16.48;;;8.38;;
26864;SDS011;40618;51.166;10.322;2022-10-31T15:53:25;17.67;;;8.80;;
26864;SDS011;40618;51.166;10.322;2022-10-31T15:56:18;37.33;;;13.40;;
26864;SDS011;40618;51.166;10.322;2022-10-31T15:58:56;23.00;;;9.77;;
26864;SDS011;40618;51.166;10.322;2022-10-31T16:01:26;15.13;;;7.50;;
26864;SDS011;40618;51.166;10.322;2022-10-31T16:03:58;13.18;;;7.40;;
26864;SDS011;40618;51.166;10.322;2022-10-31T16:06:36;16.38;;;7.10;;
26864;SDS011;40618;51.166;10.322;2022-10-31T16:09:02;18.40;;;8.60;;
26864;SDS011;40618;51.166;10.322;2022-10-31T16:11:43;14.43;;;7.97;;
26864;SDS011;40618;51.166;10.322;2022-10-31T16:16:56;13.32;;;7.40;;
26864;SDS011;40618;51.166;10.322;2022-10-31T16:19:26;14.23;;;9.32;;
26864;SDS011;40618;51.166;10.322;2022-10-31T16:22:05;12.57;;;7.55;;
26864;SDS011;40618;51.166;10.322;2022-10-31T16:24:44;15.23;;;8.05;;
26864;SDS011;40618;51.166;10.322;2022-10-31T16:27:18;13.20;;;7.68;;
26864;SDS011;40618;51.166;10.322;2022-10-31T16:29:50;11.77;;;7.05;;
26864;SDS011;40618;51.166;10.322;2022-10-31T16:34:58;27.48;;;24.30;;
26864;SDS011;40618;51.166;10.322;2022-10-31T16:37:39;14.85;;;11.07;;
26864;SDS011;40618;51.166;10.322;2022-10-31T16:40:06;14.48;;;8.27;;
26864;SDS011;40618;51.166;10.322;2022-10-31T16:42:35;13.77;;;7.05;;
26864;SDS011;40618;51.166;10.322;2022-10-31T16:45:00;11.90;;;7.38;;
26864;SDS011;40618;51.166;10.322;2022-10-31T16:47:26;15.73;;;7.22;;
26864;SDS011;40618;51.166;10.322;2022-10-31T16:49:51;9.48;;;6.60;;
26864;SDS011;40618;51.166;10.322;2022-10-31T16:52:17;14.35;;;7.95;;
26864;SDS011;40618;51.166;10.322;2022-10-31T16:54:43;12.40;;;7.63;;
26864;SDS011;40618;51.166;10.322;2022-10-31T16:57:13;14.00;;;7.72;;
26864;SDS011;40618;51.166;10.322;2022-10-31T16:59:51;11.57;;;6.70;;
26864;SDS011;40618;51.166;10.322;2022-10-31T17:02:20;10.77;;;6.35;;
26864;SDS011;40618;51.166;10.322;2022-10-31T17:04:46;14.57;;;8.30;;
26864;SDS011;40618;51.166;10.322;2022-10-31T17:07:12;16.70;;;8.57;;
26864;SDS011;40618;51.166;10.322;2022-10-31T17:09:37;15.75;;;8.13;;
26864;SDS011;40618;51.166;10.322;2022-10-31T17:12:03;15.57;;;8.65;;
26864;SDS011;40618;51.166;10.322;2022-10-31T17:14:31;22.27;;;8.82;;
26864;SDS011;40618;51.166;10.322;2022-10-31T17:16:58;13.27;;;8.70;;
26864;SDS011;40618;51.166;10.322;2022-10-31T17:19:24;15.18;;;8.40;;
26864;SDS011;40618;51.166;10.322;2022-10-31T17:21:49;15.43;;;8.50;;
26864;SDS011;40618;51.166;10.322;2022-10-31T17:24:15;20.55;;;9.18;;
26864;SDS011;40618;51.166;10.322;2022-10-31T17:26:40;14.52;;;9.18;;
26864;SDS011;40618;51.166;10.322;2022-10-31T17:29:07;15.63;;;9.68;;
26864;SDS011;40618;51.166;10.322;2022-10-31T17:31:33;16.67;;;9.23;;